sensor_id;sensor_type;location;lat;lon;timestamp;P1;durP1;ratioP1;P2;durP2;ratioP2
48935;SDS011;34745;52.276;10.528;2022-07-23T00:00:43;13.57;;;8.52;;
48935;SDS011;34745;52.276;10.528;2022-07-23T00:03:10;12.98;;;8.55;;
48935;SDS011;34745;52.276;10.528;2022-07-23T00:05:39;9.77;;;7.80;;
48935;SDS011;34745;52.276;10.528;2022-07-23T00:08:06;12.25;;;8.38;;
48935;SDS011;34745;52.276;10.528;2022-07-23T00:10:39;11.43;;;9.13;;
48935;SDS011;34745;52.276;10.528;2022-07-23T00:13:05;12.55;;;8.20;;
48935;SDS011;34745;52.276;10.528;2022-07-23T00:15:33;11.45;;;8.57;;
48935;SDS011;34745;52.276;10.528;2022-07-23T00:18:00;14.00;;;8.15;;
48935;SDS011;34745;52.276;10.528;2022-07-23T00:20:27;11.60;;;7.95;;
48935;SDS011;34745;52.276;10.528;2022-07-23T00:22:55;11.55;;;8.77;;
48935;SDS011;34745;52.276;10.528;2022-07-23T00:25:23;13.82;;;9.27;;
48935;SDS011;34745;52.276;10.528;2022-07-23T00:27:55;11.57;;;9.13;;
48935;SDS011;34745;52.276;10.528;2022-07-23T00:30:22;12.68;;;8.52;;
48935;SDS011;34745;52.276;10.528;2022-07-23T00:32:50;16.15;;;10.35;;
48935;SDS011;34745;52.276;10.528;2022-07-23T00:35:22;12.77;;;9.05;;
48935;SDS011;34745;52.276;10.528;2022-07-23T00:37:50;11.98;;;9.13;;
48935;SDS011;34745;52.276;10.528;2022-07-23T00:40:19;13.68;;;9.15;;
48935;SDS011;34745;52.276;10.528;2022-07-23T00:42:46;14.02;;;8.30;;
48935;SDS011;34745;52.276;10.528;2022-07-23T00:45:13;16.02;;;9.02;;
48935;SDS011;34745;52.276;10.528;2022-07-23T00:47:40;12.13;;;8.85;;
48935;SDS011;34745;52.276;10.528;2022-07-23T00:50:08;11.57;;;8.60;;
48935;SDS011;34745;52.276;10.528;2022-07-23T00:52:37;12.60;;;8.80;;
48935;SDS011;34745;52.276;10.528;2022-07-23T00:55:05;13.00;;;8.60;;
48935;SDS011;34745;52.276;10.528;2022-07-23T00:57:34;11.10;;;8.73;;
48935;SDS011;34745;52.276;10.528;2022-07-23T01:00:02;12.20;;;9.45;;
48935;SDS011;34745;52.276;10.528;2022-07-23T01:02:30;13.85;;;8.90;;
48935;SDS011;34745;52.276;10.528;2022-07-23T01:04:57;14.40;;;9.48;;
48935;SDS011;34745;52.276;10.528;2022-07-23T01:07:24;13.87;;;9.47;;
48935;SDS011;34745;52.276;10.528;2022-07-23T01:09:51;12.10;;;9.32;;
48935;SDS011;34745;52.276;10.528;2022-07-23T01:12:18;13.13;;;9.47;;
48935;SDS011;34745;52.276;10.528;2022-07-23T01:14:49;17.23;;;9.17;;
48935;SDS011;34745;52.276;10.528;2022-07-23T01:17:19;18.20;;;8.80;;
48935;SDS011;34745;52.276;10.528;2022-07-23T01:19:47;12.80;;;9.57;;
48935;SDS011;34745;52.276;10.528;2022-07-23T01:22:14;13.50;;;8.50;;
48935;SDS011;34745;52.276;10.528;2022-07-23T01:24:45;13.77;;;9.30;;
48935;SDS011;34745;52.276;10.528;2022-07-23T01:27:12;15.27;;;9.20;;
48935;SDS011;34745;52.276;10.528;2022-07-23T01:29:39;12.10;;;9.03;;
48935;SDS011;34745;52.276;10.528;2022-07-23T01:32:06;11.43;;;8.10;;
48935;SDS011;34745;52.276;10.528;2022-07-23T01:34:48;12.90;;;8.77;;
48935;SDS011;34745;52.276;10.528;2022-07-23T01:37:14;14.43;;;9.70;;
48935;SDS011;34745;52.276;10.528;2022-07-23T01:39:42;15.73;;;9.60;;
48935;SDS011;34745;52.276;10.528;2022-07-23T01:42:10;14.95;;;9.82;;
48935;SDS011;34745;52.276;10.528;2022-07-23T01:44:38;16.00;;;9.80;;
48935;SDS011;34745;52.276;10.528;2022-07-23T01:47:05;13.77;;;10.23;;
48935;SDS011;34745;52.276;10.528;2022-07-23T01:49:32;14.83;;;9.60;;
48935;SDS011;34745;52.276;10.528;2022-07-23T01:51:59;17.33;;;9.33;;
48935;SDS011;34745;52.276;10.528;2022-07-23T01:54:26;18.00;;;10.30;;
48935;SDS011;34745;52.276;10.528;2022-07-23T01:56:54;11.93;;;9.55;;
48935;SDS011;34745;52.276;10.528;2022-07-23T01:59:23;16.20;;;9.60;;
48935;SDS011;34745;52.276;10.528;2022-07-23T02:01:50;17.37;;;10.27;;
48935;SDS011;34745;52.276;10.528;2022-07-23T02:04:17;21.75;;;10.55;;
48935;SDS011;34745;52.276;10.528;2022-07-23T02:06:45;17.77;;;9.43;;
48935;SDS011;34745;52.276;10.528;2022-07-23T02:09:12;16.80;;;9.60;;
48935;SDS011;34745;52.276;10.528;2022-07-23T02:11:40;13.77;;;9.40;;
48935;SDS011;34745;52.276;10.528;2022-07-23T02:14:07;17.43;;;10.13;;
48935;SDS011;34745;52.276;10.528;2022-07-23T02:16:35;14.43;;;9.70;;
48935;SDS011;34745;52.276;10.528;2022-07-23T02:19:03;16.00;;;9.77;;
48935;SDS011;34745;52.276;10.528;2022-07-23T02:21:30;15.07;;;9.63;;
48935;SDS011;34745;52.276;10.528;2022-07-23T02:23:57;19.63;;;10.70;;
48935;SDS011;34745;52.276;10.528;2022-07-23T02:26:24;14.10;;;10.17;;
48935;SDS011;34745;52.276;10.528;2022-07-23T02:28:51;14.83;;;10.10;;
48935;SDS011;34745;52.276;10.528;2022-07-23T02:31:19;13.83;;;10.27;;
48935;SDS011;34745;52.276;10.528;2022-07-23T02:33:48;14.93;;;11.30;;
48935;SDS011;34745;52.276;10.528;2022-07-23T02:36:15;19.77;;;11.23;;
48935;SDS011;34745;52.276;10.528;2022-07-23T02:38:42;20.33;;;11.80;;
48935;SDS011;34745;52.276;10.528;2022-07-23T02:41:09;16.93;;;11.20;;
48935;SDS011;34745;52.276;10.528;2022-07-23T02:43:36;19.93;;;11.70;;
48935;SDS011;34745;52.276;10.528;2022-07-23T02:46:03;26.37;;;13.10;;
48935;SDS011;34745;52.276;10.528;2022-07-23T02:48:31;17.17;;;11.97;;
48935;SDS011;34745;52.276;10.528;2022-07-23T02:51:02;19.60;;;12.80;;
48935;SDS011;34745;52.276;10.528;2022-07-23T02:53:35;23.30;;;12.77;;
48935;SDS011;34745;52.276;10.528;2022-07-23T02:56:03;18.97;;;12.50;;
48935;SDS011;34745;52.276;10.528;2022-07-23T02:58:30;16.20;;;11.73;;
48935;SDS011;34745;52.276;10.528;2022-07-23T03:01:03;17.50;;;11.50;;
48935;SDS011;34745;52.276;10.528;2022-07-23T03:03:30;17.73;;;11.97;;
48935;SDS011;34745;52.276;10.528;2022-07-23T03:05:58;14.67;;;10.83;;
48935;SDS011;34745;52.276;10.528;2022-07-23T03:08:26;20.03;;;12.83;;
48935;SDS011;34745;52.276;10.528;2022-07-23T03:10:53;18.07;;;11.77;;
48935;SDS011;34745;52.276;10.528;2022-07-23T03:13:20;18.87;;;11.57;;
48935;SDS011;34745;52.276;10.528;2022-07-23T03:15:47;19.83;;;11.73;;
48935;SDS011;34745;52.276;10.528;2022-07-23T03:18:14;19.00;;;12.03;;
48935;SDS011;34745;52.276;10.528;2022-07-23T03:20:42;16.37;;;10.80;;
48935;SDS011;34745;52.276;10.528;2022-07-23T03:23:09;17.50;;;10.70;;
48935;SDS011;34745;52.276;10.528;2022-07-23T03:25:37;20.87;;;10.53;;
48935;SDS011;34745;52.276;10.528;2022-07-23T03:28:04;18.10;;;10.50;;
48935;SDS011;34745;52.276;10.528;2022-07-23T03:30:32;16.77;;;9.90;;
48935;SDS011;34745;52.276;10.528;2022-07-23T03:32:59;13.77;;;9.83;;
48935;SDS011;34745;52.276;10.528;2022-07-23T03:35:27;12.70;;;9.80;;
48935;SDS011;34745;52.276;10.528;2022-07-23T03:37:53;17.33;;;9.60;;
48935;SDS011;34745;52.276;10.528;2022-07-23T03:40:20;16.20;;;9.47;;
48935;SDS011;34745;52.276;10.528;2022-07-23T03:42:49;14.13;;;9.90;;
48935;SDS011;34745;52.276;10.528;2022-07-23T03:45:16;13.20;;;9.33;;
48935;SDS011;34745;52.276;10.528;2022-07-23T03:47:43;12.20;;;9.30;;
48935;SDS011;34745;52.276;10.528;2022-07-23T03:50:10;18.57;;;9.77;;
48935;SDS011;34745;52.276;10.528;2022-07-23T03:52:37;17.47;;;9.53;;
48935;SDS011;34745;52.276;10.528;2022-07-23T03:55:05;13.53;;;8.83;;
48935;SDS011;34745;52.276;10.528;2022-07-23T03:57:33;18.83;;;8.73;;
48935;SDS011;34745;52.276;10.528;2022-07-23T04:00:02;13.80;;;8.40;;
48935;SDS011;34745;52.276;10.528;2022-07-23T04:02:30;16.50;;;8.40;;
48935;SDS011;34745;52.276;10.528;2022-07-23T04:04:57;13.20;;;8.10;;
48935;SDS011;34745;52.276;10.528;2022-07-23T04:07:26;15.23;;;8.20;;
48935;SDS011;34745;52.276;10.528;2022-07-23T04:09:53;17.93;;;8.30;;
48935;SDS011;34745;52.276;10.528;2022-07-23T04:12:20;14.90;;;8.53;;
48935;SDS011;34745;52.276;10.528;2022-07-23T04:14:47;20.00;;;8.93;;
48935;SDS011;34745;52.276;10.528;2022-07-23T04:17:15;15.13;;;7.70;;
48935;SDS011;34745;52.276;10.528;2022-07-23T04:19:42;10.10;;;7.80;;
48935;SDS011;34745;52.276;10.528;2022-07-23T04:22:11;13.90;;;8.30;;
48935;SDS011;34745;52.276;10.528;2022-07-23T04:24:38;11.97;;;8.70;;
48935;SDS011;34745;52.276;10.528;2022-07-23T04:27:05;19.93;;;7.93;;
48935;SDS011;34745;52.276;10.528;2022-07-23T04:29:32;11.83;;;7.83;;
48935;SDS011;34745;52.276;10.528;2022-07-23T04:32:00;12.30;;;7.93;;
48935;SDS011;34745;52.276;10.528;2022-07-23T04:34:28;15.50;;;9.47;;
48935;SDS011;34745;52.276;10.528;2022-07-23T04:36:56;11.33;;;8.73;;
48935;SDS011;34745;52.276;10.528;2022-07-23T04:39:23;15.27;;;9.07;;
48935;SDS011;34745;52.276;10.528;2022-07-23T04:41:50;15.37;;;9.47;;
48935;SDS011;34745;52.276;10.528;2022-07-23T04:44:17;13.87;;;9.53;;
48935;SDS011;34745;52.276;10.528;2022-07-23T04:46:44;13.57;;;9.40;;
48935;SDS011;34745;52.276;10.528;2022-07-23T04:49:12;15.43;;;9.07;;
48935;SDS011;34745;52.276;10.528;2022-07-23T04:51:41;21.10;;;9.07;;
48935;SDS011;34745;52.276;10.528;2022-07-23T04:54:08;14.87;;;8.90;;
48935;SDS011;34745;52.276;10.528;2022-07-23T04:56:35;15.93;;;8.70;;
48935;SDS011;34745;52.276;10.528;2022-07-23T04:59:02;17.27;;;9.13;;
48935;SDS011;34745;52.276;10.528;2022-07-23T05:01:30;15.33;;;8.60;;
48935;SDS011;34745;52.276;10.528;2022-07-23T05:03:57;17.57;;;9.10;;
48935;SDS011;34745;52.276;10.528;2022-07-23T05:06:25;18.73;;;8.73;;
48935;SDS011;34745;52.276;10.528;2022-07-23T05:08:53;14.83;;;8.57;;
48935;SDS011;34745;52.276;10.528;2022-07-23T05:11:21;14.83;;;8.80;;
48935;SDS011;34745;52.276;10.528;2022-07-23T05:13:52;12.93;;;8.30;;
48935;SDS011;34745;52.276;10.528;2022-07-23T05:16:20;13.03;;;8.60;;
48935;SDS011;34745;52.276;10.528;2022-07-23T05:18:47;14.17;;;8.90;;
48935;SDS011;34745;52.276;10.528;2022-07-23T05:21:14;14.57;;;8.80;;
48935;SDS011;34745;52.276;10.528;2022-07-23T05:23:41;13.23;;;8.80;;
48935;SDS011;34745;52.276;10.528;2022-07-23T05:26:09;11.77;;;9.03;;
48935;SDS011;34745;52.276;10.528;2022-07-23T05:28:36;18.43;;;9.33;;
48935;SDS011;34745;52.276;10.528;2022-07-23T05:31:03;11.40;;;8.70;;
48935;SDS011;34745;52.276;10.528;2022-07-23T05:33:30;19.70;;;9.77;;
48935;SDS011;34745;52.276;10.528;2022-07-23T05:35:59;17.13;;;9.87;;
48935;SDS011;34745;52.276;10.528;2022-07-23T05:38:28;16.03;;;9.60;;
48935;SDS011;34745;52.276;10.528;2022-07-23T05:40:55;17.63;;;9.97;;
48935;SDS011;34745;52.276;10.528;2022-07-23T05:43:24;14.20;;;9.50;;
48935;SDS011;34745;52.276;10.528;2022-07-23T05:45:51;16.37;;;10.03;;
48935;SDS011;34745;52.276;10.528;2022-07-23T05:48:18;17.67;;;10.40;;
48935;SDS011;34745;52.276;10.528;2022-07-23T05:50:46;17.97;;;11.10;;
48935;SDS011;34745;52.276;10.528;2022-07-23T05:53:14;16.77;;;9.70;;
48935;SDS011;34745;52.276;10.528;2022-07-23T05:55:41;16.23;;;10.23;;
48935;SDS011;34745;52.276;10.528;2022-07-23T05:58:08;18.37;;;11.03;;
48935;SDS011;34745;52.276;10.528;2022-07-23T06:00:36;15.53;;;10.93;;
48935;SDS011;34745;52.276;10.528;2022-07-23T06:03:04;14.10;;;10.13;;
48935;SDS011;34745;52.276;10.528;2022-07-23T06:05:30;15.60;;;9.50;;
48935;SDS011;34745;52.276;10.528;2022-07-23T06:07:58;14.23;;;9.93;;
48935;SDS011;34745;52.276;10.528;2022-07-23T06:10:25;14.50;;;9.73;;
48935;SDS011;34745;52.276;10.528;2022-07-23T06:12:52;16.13;;;9.67;;
48935;SDS011;34745;52.276;10.528;2022-07-23T06:15:27;14.40;;;10.23;;
48935;SDS011;34745;52.276;10.528;2022-07-23T06:17:55;13.47;;;9.00;;
48935;SDS011;34745;52.276;10.528;2022-07-23T06:20:22;15.07;;;9.83;;
48935;SDS011;34745;52.276;10.528;2022-07-23T06:22:49;13.87;;;9.13;;
48935;SDS011;34745;52.276;10.528;2022-07-23T06:25:16;14.73;;;9.45;;
48935;SDS011;34745;52.276;10.528;2022-07-23T06:27:45;14.60;;;10.40;;
48935;SDS011;34745;52.276;10.528;2022-07-23T06:30:12;15.20;;;10.23;;
48935;SDS011;34745;52.276;10.528;2022-07-23T06:32:43;17.77;;;10.52;;
48935;SDS011;34745;52.276;10.528;2022-07-23T06:35:12;14.75;;;10.30;;
48935;SDS011;34745;52.276;10.528;2022-07-23T06:37:39;16.47;;;10.67;;
48935;SDS011;34745;52.276;10.528;2022-07-23T06:40:06;13.87;;;10.30;;
48935;SDS011;34745;52.276;10.528;2022-07-23T06:42:34;15.30;;;10.50;;
48935;SDS011;34745;52.276;10.528;2022-07-23T06:45:06;18.67;;;11.03;;
48935;SDS011;34745;52.276;10.528;2022-07-23T06:47:34;15.03;;;10.57;;
48935;SDS011;34745;52.276;10.528;2022-07-23T06:50:01;17.80;;;11.20;;
48935;SDS011;34745;52.276;10.528;2022-07-23T06:52:30;16.13;;;9.82;;
48935;SDS011;34745;52.276;10.528;2022-07-23T06:54:57;12.40;;;9.63;;
48935;SDS011;34745;52.276;10.528;2022-07-23T06:57:24;13.50;;;9.40;;
48935;SDS011;34745;52.276;10.528;2022-07-23T06:59:51;13.48;;;8.18;;
48935;SDS011;34745;52.276;10.528;2022-07-23T07:02:21;18.53;;;9.10;;
48935;SDS011;34745;52.276;10.528;2022-07-23T07:04:48;12.03;;;9.37;;
48935;SDS011;34745;52.276;10.528;2022-07-23T07:07:16;18.67;;;10.43;;
48935;SDS011;34745;52.276;10.528;2022-07-23T07:09:44;17.07;;;9.80;;
48935;SDS011;34745;52.276;10.528;2022-07-23T07:12:13;15.80;;;8.82;;
48935;SDS011;34745;52.276;10.528;2022-07-23T07:14:40;15.10;;;8.27;;
48935;SDS011;34745;52.276;10.528;2022-07-23T07:17:08;17.40;;;8.50;;
48935;SDS011;34745;52.276;10.528;2022-07-23T07:19:36;13.45;;;8.52;;
48935;SDS011;34745;52.276;10.528;2022-07-23T07:22:03;16.80;;;7.93;;
48935;SDS011;34745;52.276;10.528;2022-07-23T07:24:30;11.77;;;7.53;;
48935;SDS011;34745;52.276;10.528;2022-07-23T07:27:05;16.70;;;8.13;;
48935;SDS011;34745;52.276;10.528;2022-07-23T07:29:32;11.68;;;8.05;;
48935;SDS011;34745;52.276;10.528;2022-07-23T07:31:59;16.90;;;7.47;;
48935;SDS011;34745;52.276;10.528;2022-07-23T07:34:26;15.07;;;7.13;;
48935;SDS011;34745;52.276;10.528;2022-07-23T07:36:53;12.52;;;6.55;;
48935;SDS011;34745;52.276;10.528;2022-07-23T07:39:20;14.95;;;6.85;;
48935;SDS011;34745;52.276;10.528;2022-07-23T07:41:47;12.55;;;6.85;;
48935;SDS011;34745;52.276;10.528;2022-07-23T07:44:16;11.60;;;6.95;;
48935;SDS011;34745;52.276;10.528;2022-07-23T07:46:43;10.35;;;6.10;;
48935;SDS011;34745;52.276;10.528;2022-07-23T07:49:10;9.63;;;5.85;;
48935;SDS011;34745;52.276;10.528;2022-07-23T07:51:57;13.73;;;6.28;;
48935;SDS011;34745;52.276;10.528;2022-07-23T07:54:24;10.63;;;6.13;;
48935;SDS011;34745;52.276;10.528;2022-07-23T07:56:51;8.25;;;5.28;;
48935;SDS011;34745;52.276;10.528;2022-07-23T07:59:20;8.32;;;4.82;;
48935;SDS011;34745;52.276;10.528;2022-07-23T08:01:47;9.13;;;4.80;;
48935;SDS011;34745;52.276;10.528;2022-07-23T08:04:15;10.27;;;4.75;;
48935;SDS011;34745;52.276;10.528;2022-07-23T08:06:41;6.00;;;4.28;;
48935;SDS011;34745;52.276;10.528;2022-07-23T08:09:09;11.07;;;4.28;;
48935;SDS011;34745;52.276;10.528;2022-07-23T08:11:36;9.20;;;4.30;;
48935;SDS011;34745;52.276;10.528;2022-07-23T08:14:03;7.22;;;4.50;;
48935;SDS011;34745;52.276;10.528;2022-07-23T08:16:32;8.52;;;4.30;;
48935;SDS011;34745;52.276;10.528;2022-07-23T08:19:19;9.07;;;4.20;;
48935;SDS011;34745;52.276;10.528;2022-07-23T08:21:46;5.80;;;3.60;;
48935;SDS011;34745;52.276;10.528;2022-07-23T08:24:13;8.68;;;4.07;;
48935;SDS011;34745;52.276;10.528;2022-07-23T08:26:40;6.68;;;3.80;;
48935;SDS011;34745;52.276;10.528;2022-07-23T08:29:08;17.40;;;4.65;;
48935;SDS011;34745;52.276;10.528;2022-07-23T08:31:36;7.72;;;3.53;;
48935;SDS011;34745;52.276;10.528;2022-07-23T08:34:03;9.30;;;3.40;;
48935;SDS011;34745;52.276;10.528;2022-07-23T08:36:31;8.07;;;3.05;;
48935;SDS011;34745;52.276;10.528;2022-07-23T08:38:58;7.90;;;3.58;;
48935;SDS011;34745;52.276;10.528;2022-07-23T08:41:25;7.03;;;3.63;;
48935;SDS011;34745;52.276;10.528;2022-07-23T08:43:53;8.50;;;3.30;;
48935;SDS011;34745;52.276;10.528;2022-07-23T08:46:20;7.00;;;3.47;;
48935;SDS011;34745;52.276;10.528;2022-07-23T08:48:49;5.85;;;3.25;;
48935;SDS011;34745;52.276;10.528;2022-07-23T08:51:17;5.45;;;3.45;;
48935;SDS011;34745;52.276;10.528;2022-07-23T08:53:44;10.30;;;3.38;;
48935;SDS011;34745;52.276;10.528;2022-07-23T08:56:12;6.93;;;3.40;;
48935;SDS011;34745;52.276;10.528;2022-07-23T08:58:40;8.68;;;3.10;;
48935;SDS011;34745;52.276;10.528;2022-07-23T09:01:07;6.80;;;3.25;;
48935;SDS011;34745;52.276;10.528;2022-07-23T09:03:36;6.47;;;3.60;;
48935;SDS011;34745;52.276;10.528;2022-07-23T09:06:07;7.55;;;3.58;;
48935;SDS011;34745;52.276;10.528;2022-07-23T09:08:34;9.50;;;3.35;;
48935;SDS011;34745;52.276;10.528;2022-07-23T09:11:04;8.80;;;2.70;;
48935;SDS011;34745;52.276;10.528;2022-07-23T09:13:33;7.95;;;2.63;;
48935;SDS011;34745;52.276;10.528;2022-07-23T09:16:03;7.03;;;2.85;;
48935;SDS011;34745;52.276;10.528;2022-07-23T09:18:36;6.68;;;2.63;;
48935;SDS011;34745;52.276;10.528;2022-07-23T09:21:10;2.50;;;2.30;;
48935;SDS011;34745;52.276;10.528;2022-07-23T09:23:40;6.97;;;2.40;;
48935;SDS011;34745;52.276;10.528;2022-07-23T09:26:27;6.20;;;2.15;;
48935;SDS011;34745;52.276;10.528;2022-07-23T09:29:00;6.00;;;2.10;;
48935;SDS011;34745;52.276;10.528;2022-07-23T09:31:33;8.32;;;2.17;;
48935;SDS011;34745;52.276;10.528;2022-07-23T09:34:09;4.78;;;2.20;;
48935;SDS011;34745;52.276;10.528;2022-07-23T09:36:40;10.45;;;2.80;;
48935;SDS011;34745;52.276;10.528;2022-07-23T09:39:09;5.68;;;2.53;;
48935;SDS011;34745;52.276;10.528;2022-07-23T09:41:38;3.97;;;2.10;;
48935;SDS011;34745;52.276;10.528;2022-07-23T09:44:11;5.82;;;2.40;;
48935;SDS011;34745;52.276;10.528;2022-07-23T09:46:40;5.97;;;2.25;;
48935;SDS011;34745;52.276;10.528;2022-07-23T09:49:14;5.20;;;2.75;;
48935;SDS011;34745;52.276;10.528;2022-07-23T09:51:45;7.93;;;2.88;;
48935;SDS011;34745;52.276;10.528;2022-07-23T09:54:21;7.80;;;2.47;;
48935;SDS011;34745;52.276;10.528;2022-07-23T09:56:51;5.72;;;2.70;;
48935;SDS011;34745;52.276;10.528;2022-07-23T09:59:19;4.97;;;2.35;;
48935;SDS011;34745;52.276;10.528;2022-07-23T10:01:51;3.80;;;2.58;;
48935;SDS011;34745;52.276;10.528;2022-07-23T10:04:20;4.80;;;3.30;;
48935;SDS011;34745;52.276;10.528;2022-07-23T10:06:51;5.53;;;2.97;;
48935;SDS011;34745;52.276;10.528;2022-07-23T10:09:21;2.50;;;2.28;;
48935;SDS011;34745;52.276;10.528;2022-07-23T10:11:50;3.95;;;3.08;;
48935;SDS011;34745;52.276;10.528;2022-07-23T10:14:21;3.67;;;3.30;;
48935;SDS011;34745;52.276;10.528;2022-07-23T10:16:48;5.53;;;3.00;;
48935;SDS011;34745;52.276;10.528;2022-07-23T10:19:16;5.72;;;3.08;;
48935;SDS011;34745;52.276;10.528;2022-07-23T10:21:45;2.60;;;2.40;;
48935;SDS011;34745;52.276;10.528;2022-07-23T10:24:20;3.28;;;2.58;;
48935;SDS011;34745;52.276;10.528;2022-07-23T10:26:57;4.63;;;2.25;;
48935;SDS011;34745;52.276;10.528;2022-07-23T10:29:36;3.88;;;2.30;;
48935;SDS011;34745;52.276;10.528;2022-07-23T10:32:16;3.20;;;2.10;;
48935;SDS011;34745;52.276;10.528;2022-07-23T10:34:52;7.05;;;2.35;;
48935;SDS011;34745;52.276;10.528;2022-07-23T10:37:26;3.67;;;2.10;;
48935;SDS011;34745;52.276;10.528;2022-07-23T10:40:13;4.65;;;2.58;;
48935;SDS011;34745;52.276;10.528;2022-07-23T10:42:43;5.90;;;2.55;;
48935;SDS011;34745;52.276;10.528;2022-07-23T10:45:23;4.90;;;2.67;;
48935;SDS011;34745;52.276;10.528;2022-07-23T10:47:53;4.43;;;2.50;;
48935;SDS011;34745;52.276;10.528;2022-07-23T10:50:21;9.68;;;2.60;;
48935;SDS011;34745;52.276;10.528;2022-07-23T10:55:44;3.95;;;2.25;;
48935;SDS011;34745;52.276;10.528;2022-07-23T10:58:17;5.63;;;2.50;;
48935;SDS011;34745;52.276;10.528;2022-07-23T11:00:47;5.72;;;2.55;;
48935;SDS011;34745;52.276;10.528;2022-07-23T11:03:28;4.30;;;2.83;;
48935;SDS011;34745;52.276;10.528;2022-07-23T11:06:03;4.30;;;2.38;;
48935;SDS011;34745;52.276;10.528;2022-07-23T11:08:31;2.70;;;2.03;;
48935;SDS011;34745;52.276;10.528;2022-07-23T11:11:10;3.30;;;2.10;;
48935;SDS011;34745;52.276;10.528;2022-07-23T11:13:45;4.45;;;2.15;;
48935;SDS011;34745;52.276;10.528;2022-07-23T11:16:19;4.85;;;1.90;;
48935;SDS011;34745;52.276;10.528;2022-07-23T11:19:06;3.45;;;2.10;;
48935;SDS011;34745;52.276;10.528;2022-07-23T11:21:41;2.67;;;2.35;;
48935;SDS011;34745;52.276;10.528;2022-07-23T11:24:12;3.55;;;2.22;;
48935;SDS011;34745;52.276;10.528;2022-07-23T11:26:46;3.33;;;2.10;;
48935;SDS011;34745;52.276;10.528;2022-07-23T11:32:23;6.07;;;1.92;;
48935;SDS011;34745;52.276;10.528;2022-07-23T11:34:53;5.82;;;1.85;;
48935;SDS011;34745;52.276;10.528;2022-07-23T11:37:28;3.22;;;1.73;;
48935;SDS011;34745;52.276;10.528;2022-07-23T11:40:02;10.68;;;1.70;;
48935;SDS011;34745;52.276;10.528;2022-07-23T11:42:34;2.25;;;1.40;;
48935;SDS011;34745;52.276;10.528;2022-07-23T11:45:02;4.43;;;1.90;;
48935;SDS011;34745;52.276;10.528;2022-07-23T11:47:31;3.25;;;1.40;;
48935;SDS011;34745;52.276;10.528;2022-07-23T11:49:58;6.43;;;1.80;;
48935;SDS011;34745;52.276;10.528;2022-07-23T11:52:27;4.25;;;1.85;;
48935;SDS011;34745;52.276;10.528;2022-07-23T11:54:55;2.35;;;1.60;;
48935;SDS011;34745;52.276;10.528;2022-07-23T11:57:25;4.35;;;1.63;;
48935;SDS011;34745;52.276;10.528;2022-07-23T11:59:55;5.53;;;1.77;;
48935;SDS011;34745;52.276;10.528;2022-07-23T12:02:23;6.13;;;1.58;;
48935;SDS011;34745;52.276;10.528;2022-07-23T12:04:51;3.50;;;1.60;;
48935;SDS011;34745;52.276;10.528;2022-07-23T12:07:23;1.70;;;1.52;;
48935;SDS011;34745;52.276;10.528;2022-07-23T12:09:56;3.45;;;1.50;;
48935;SDS011;34745;52.276;10.528;2022-07-23T12:12:34;3.85;;;1.63;;
48935;SDS011;34745;52.276;10.528;2022-07-23T12:15:07;2.92;;;1.67;;
48935;SDS011;34745;52.276;10.528;2022-07-23T12:17:40;3.00;;;1.80;;
48935;SDS011;34745;52.276;10.528;2022-07-23T12:20:23;1.92;;;1.27;;
48935;SDS011;34745;52.276;10.528;2022-07-23T12:22:55;7.07;;;1.60;;
48935;SDS011;34745;52.276;10.528;2022-07-23T12:25:25;7.13;;;1.70;;
48935;SDS011;34745;52.276;10.528;2022-07-23T12:28:01;4.30;;;1.58;;
48935;SDS011;34745;52.276;10.528;2022-07-23T12:30:33;2.95;;;1.70;;
48935;SDS011;34745;52.276;10.528;2022-07-23T12:33:06;3.15;;;1.50;;
48935;SDS011;34745;52.276;10.528;2022-07-23T12:35:39;2.47;;;1.60;;
48935;SDS011;34745;52.276;10.528;2022-07-23T12:38:14;1.80;;;1.70;;
48935;SDS011;34745;52.276;10.528;2022-07-23T12:40:47;4.85;;;1.70;;
48935;SDS011;34745;52.276;10.528;2022-07-23T12:43:21;4.88;;;1.50;;
48935;SDS011;34745;52.276;10.528;2022-07-23T12:45:53;4.82;;;1.52;;
48935;SDS011;34745;52.276;10.528;2022-07-23T12:48:24;13.57;;;2.03;;
48935;SDS011;34745;52.276;10.528;2022-07-23T12:50:56;4.25;;;1.25;;
48935;SDS011;34745;52.276;10.528;2022-07-23T12:53:28;2.38;;;1.30;;
48935;SDS011;34745;52.276;10.528;2022-07-23T12:56:02;3.38;;;1.60;;
48935;SDS011;34745;52.276;10.528;2022-07-23T12:58:45;4.68;;;1.50;;
48935;SDS011;34745;52.276;10.528;2022-07-23T13:01:32;1.80;;;1.45;;
48935;SDS011;34745;52.276;10.528;2022-07-23T13:04:02;5.05;;;1.65;;
48935;SDS011;34745;52.276;10.528;2022-07-23T13:06:49;4.85;;;1.58;;
48935;SDS011;34745;52.276;10.528;2022-07-23T13:09:19;2.42;;;1.30;;
48935;SDS011;34745;52.276;10.528;2022-07-23T13:11:49;3.47;;;1.40;;
48935;SDS011;34745;52.276;10.528;2022-07-23T13:14:18;4.18;;;1.38;;
48935;SDS011;34745;52.276;10.528;2022-07-23T13:16:51;3.22;;;1.27;;
48935;SDS011;34745;52.276;10.528;2022-07-23T13:19:22;3.90;;;1.30;;
48935;SDS011;34745;52.276;10.528;2022-07-23T13:21:59;4.07;;;1.67;;
48935;SDS011;34745;52.276;10.528;2022-07-23T13:24:36;1.70;;;1.13;;
48935;SDS011;34745;52.276;10.528;2022-07-23T13:27:05;2.72;;;1.50;;
48935;SDS011;34745;52.276;10.528;2022-07-23T13:29:39;1.80;;;1.30;;
48935;SDS011;34745;52.276;10.528;2022-07-23T13:35:13;5.93;;;1.42;;
48935;SDS011;34745;52.276;10.528;2022-07-23T13:37:44;2.50;;;1.50;;
48935;SDS011;34745;52.276;10.528;2022-07-23T13:40:13;4.47;;;1.20;;
48935;SDS011;34745;52.276;10.528;2022-07-23T13:42:43;2.42;;;1.30;;
48935;SDS011;34745;52.276;10.528;2022-07-23T13:45:14;1.92;;;1.35;;
48935;SDS011;34745;52.276;10.528;2022-07-23T13:47:44;2.13;;;1.30;;
48935;SDS011;34745;52.276;10.528;2022-07-23T13:50:33;3.10;;;1.15;;
48935;SDS011;34745;52.276;10.528;2022-07-23T13:53:02;2.08;;;1.10;;
48935;SDS011;34745;52.276;10.528;2022-07-23T13:55:37;5.13;;;1.13;;
48935;SDS011;34745;52.276;10.528;2022-07-23T13:58:12;8.40;;;1.10;;
48935;SDS011;34745;52.276;10.528;2022-07-23T14:00:43;6.95;;;1.15;;
48935;SDS011;34745;52.276;10.528;2022-07-23T14:03:20;1.60;;;1.00;;
48935;SDS011;34745;52.276;10.528;2022-07-23T14:05:58;4.15;;;1.00;;
48935;SDS011;34745;52.276;10.528;2022-07-23T14:08:26;1.95;;;1.73;;
48935;SDS011;34745;52.276;10.528;2022-07-23T14:10:57;2.85;;;1.15;;
48935;SDS011;34745;52.276;10.528;2022-07-23T14:13:26;4.43;;;1.00;;
48935;SDS011;34745;52.276;10.528;2022-07-23T14:15:56;2.95;;;1.35;;
48935;SDS011;34745;52.276;10.528;2022-07-23T14:18:26;1.50;;;1.10;;
48935;SDS011;34745;52.276;10.528;2022-07-23T14:20:59;4.15;;;0.95;;
48935;SDS011;34745;52.276;10.528;2022-07-23T14:23:28;4.70;;;1.20;;
48935;SDS011;34745;52.276;10.528;2022-07-23T14:25:57;3.35;;;1.05;;
48935;SDS011;34745;52.276;10.528;2022-07-23T14:28:28;5.43;;;1.10;;
48935;SDS011;34745;52.276;10.528;2022-07-23T14:31:02;1.23;;;1.10;;
48935;SDS011;34745;52.276;10.528;2022-07-23T14:33:47;2.05;;;1.13;;
48935;SDS011;34745;52.276;10.528;2022-07-23T14:36:19;4.95;;;1.10;;
48935;SDS011;34745;52.276;10.528;2022-07-23T14:38:57;1.30;;;0.80;;
48935;SDS011;34745;52.276;10.528;2022-07-23T14:41:29;1.85;;;0.90;;
48935;SDS011;34745;52.276;10.528;2022-07-23T14:44:00;5.10;;;1.10;;
48935;SDS011;34745;52.276;10.528;2022-07-23T14:46:31;4.53;;;1.00;;
48935;SDS011;34745;52.276;10.528;2022-07-23T14:49:01;3.15;;;0.90;;